Terminal Aerodrome Forecast
Issued by NWS Albuquerque, NM

Home | Current Version | Previous Version | Text Only | Print | Product List | Glossary On
Versions: 1 2 3 4 5 6 7 8 9 10 11 12 13 14 15 16
499
FTUS45 KABQ 232325
TAFABQ
TAF
KABQ 232325Z 2400/2424 29012KT P6SM SCT060
     FM240100 09030G42KT P6SM SCT060
     FM241000 09020G28KT P6SM BKN050
     FM241500 10015G23KT P6SM SCT050
     FM241800 15009KT P6SM SCT050
     FM242300 19012KT P6SM VCTS BKN060CB=

USA.gov is the U.S. government's official web portal to all federal, state and local government web resources and services.